createdAt,value
2019-02-02T00:03:24.117Z,67.13
2019-02-02T00:08:26.781Z,67.83
2019-02-02T00:13:29.446Z,68.52
2019-02-02T00:18:32.197Z,69.24
2019-02-02T00:23:35.971Z,69.79
2019-02-02T00:28:38.553Z,69.30
2019-02-02T00:33:41.343Z,70.92
2019-02-02T00:38:44.033Z,72.90
2019-02-02T00:43:46.707Z,74.41
2019-02-02T00:48:49.266Z,74.91
2019-02-02T00:53:52.014Z,74.69
2019-02-02T00:58:54.814Z,74.08
2019-02-02T01:03:57.454Z,74.18
2019-02-02T01:09:00.041Z,73.01
2019-02-02T01:14:03.455Z,71.24
2019-02-02T01:19:06.435Z,71.75
2019-02-02T01:24:09.392Z,71.88
2019-02-02T01:29:12.256Z,70.39
2019-02-02T01:34:14.914Z,71.17
2019-02-02T01:39:17.515Z,70.60
2019-02-02T01:44:20.262Z,70.08
2019-02-02T01:49:22.951Z,71.24
2019-02-02T01:54:25.693Z,70.42
2019-02-02T01:59:28.284Z,69.66
2019-02-02T02:04:30.879Z,69.74
2019-02-02T02:09:33.576Z,68.59
2019-02-02T02:14:36.118Z,68.46
2019-02-02T02:19:38.904Z,66.26
2019-02-02T02:24:41.635Z,65.16
2019-02-02T02:29:44.216Z,66.89
2019-02-02T02:34:46.901Z,66.85
2019-02-02T02:39:49.481Z,67.35
2019-02-02T02:44:52.567Z,65.80
2019-02-02T02:49:55.251Z,64.45
2019-02-02T02:54:58.015Z,63.67
2019-02-02T03:00:00.621Z,65.91
2019-02-02T03:05:04.152Z,67.00
2019-02-02T03:10:09.097Z,65.34
2019-02-02T03:15:12.948Z,66.34
2019-02-02T03:20:15.993Z,66.48
2019-02-02T03:25:20.809Z,64.12
2019-02-02T03:30:23.716Z,64.74
2019-02-02T03:35:26.448Z,65.54
2019-02-02T03:40:29.099Z,67.96
2019-02-02T03:45:31.827Z,68.08
2019-02-02T03:50:34.438Z,67.93
2019-02-02T03:55:37.143Z,68.75
2019-02-02T04:00:39.841Z,69.46
2019-02-02T04:05:42.614Z,69.40
2019-02-02T04:10:45.317Z,68.23
2019-02-02T04:15:48.010Z,67.54
2019-02-02T04:20:50.765Z,68.47
2019-02-02T04:25:53.519Z,68.16
2019-02-02T04:30:56.199Z,68.31
2019-02-02T04:35:58.862Z,68.09
2019-02-02T04:41:01.593Z,69.03
2019-02-02T04:46:04.352Z,68.64
2019-02-02T04:51:07.155Z,69.12
2019-02-02T04:56:10.090Z,69.87
2019-02-02T05:01:12.873Z,70.42
2019-02-02T05:06:15.924Z,72.25
2019-02-02T05:11:18.687Z,73.45
2019-02-02T05:16:21.367Z,73.67
2019-02-02T05:21:24.132Z,71.98
2019-02-02T05:26:26.935Z,70.38
2019-02-02T05:31:29.607Z,71.73
2019-02-02T05:36:32.437Z,70.47
2019-02-02T05:41:35.019Z,69.32
2019-02-02T05:46:37.629Z,69.98
2019-02-02T05:51:40.375Z,70.15
2019-02-02T05:56:42.995Z,71.34
2019-02-02T06:01:45.760Z,71.67
2019-02-02T06:06:48.424Z,70.34
2019-02-02T06:11:51.161Z,70.56
2019-02-02T06:16:53.932Z,73.79
2019-02-02T06:21:56.672Z,75.29
2019-02-02T06:26:59.457Z,76.83
2019-02-02T06:32:11.495Z,78.12
2019-02-02T06:37:06.811Z,79.08
2019-02-02T06:42:09.543Z,79.68
2019-02-02T06:47:12.204Z,80.64
2019-02-02T06:52:14.906Z,80.37
2019-02-02T06:57:17.677Z,80.15
2019-02-02T07:02:20.500Z,81.00
2019-02-02T07:07:23.317Z,81.28
2019-02-02T07:12:26.248Z,79.71
2019-02-02T07:17:29.028Z,79.31
2019-02-02T07:22:31.713Z,79.64
2019-02-02T07:27:34.384Z,80.55
2019-02-02T07:32:37.170Z,81.86
2019-02-02T07:37:39.991Z,82.45
2019-02-02T07:42:43.032Z,81.58
2019-02-02T07:47:45.699Z,80.85
2019-02-02T07:52:48.463Z,81.82
2019-02-02T07:57:51.230Z,82.72
2019-02-02T08:02:54.109Z,83.71
2019-02-02T08:07:56.992Z,82.86
2019-02-02T08:12:59.679Z,81.94
2019-02-02T08:18:02.499Z,79.99
2019-02-02T08:23:05.336Z,79.10
2019-02-02T08:28:08.068Z,78.16
2019-02-02T08:33:10.912Z,78.39
2019-02-02T08:38:13.605Z,79.40
2019-02-02T08:43:16.367Z,79.08
2019-02-02T08:48:19.054Z,79.86
2019-02-02T08:53:21.725Z,79.49
2019-02-02T08:58:24.445Z,79.61
2019-02-02T09:09:07.773Z,79.47
2019-02-02T09:14:10.460Z,80.35
2019-02-02T09:19:13.031Z,81.52
2019-02-02T09:24:15.647Z,81.50
2019-02-02T09:29:18.390Z,82.43
2019-02-02T09:34:21.222Z,84.10
2019-02-02T09:39:23.922Z,84.18
2019-02-02T09:44:26.759Z,84.78
2019-02-02T09:49:29.498Z,81.84
2019-02-02T09:54:32.121Z,82.85
2019-02-02T09:59:34.917Z,84.91
2019-02-02T10:04:37.491Z,84.99
2019-02-02T10:09:40.346Z,81.40
2019-02-02T10:14:43.024Z,78.38
2019-02-02T10:19:45.699Z,77.55
2019-02-02T10:24:48.522Z,79.13
2019-02-02T10:29:51.413Z,78.85
2019-02-02T10:34:54.294Z,77.19
2019-02-02T10:39:56.968Z,72.54
2019-02-02T10:44:59.781Z,70.83
2019-02-02T10:50:05.432Z,64.18
2019-02-02T10:55:09.731Z,60.50
2019-02-02T11:00:18.459Z,55.11
2019-02-02T11:05:21.494Z,54.40
2019-02-02T11:10:26.572Z,55.12
2019-02-02T11:15:29.577Z,56.54
2019-02-02T11:20:33.646Z,58.69
2019-02-02T11:25:36.852Z,59.77
2019-02-02T11:30:39.644Z,62.96
2019-02-02T11:35:42.506Z,67.26
2019-02-02T11:40:45.373Z,66.82
2019-02-02T11:45:48.071Z,67.98
2019-02-02T11:50:52.401Z,69.55
2019-02-02T11:55:55.271Z,71.44
2019-02-02T12:00:58.127Z,71.11
2019-02-02T12:06:00.848Z,71.11
2019-02-02T12:11:03.636Z,66.51
2019-02-02T12:16:06.428Z,63.47
2019-02-02T12:21:09.197Z,60.85
2019-02-02T12:26:11.904Z,57.08
2019-02-02T12:31:14.717Z,53.92
2019-02-02T12:36:17.388Z,52.60
2019-02-02T12:41:20.420Z,48.03
2019-02-02T12:46:23.258Z,52.52
2019-02-02T12:51:25.935Z,48.54
2019-02-02T12:56:28.767Z,45.61
2019-02-02T13:01:31.408Z,42.41
2019-02-02T13:06:34.092Z,43.57
2019-02-02T13:11:39.030Z,40.16
2019-02-02T13:16:41.663Z,41.98
2019-02-02T13:21:44.371Z,46.07
2019-02-02T13:26:47.011Z,42.47
2019-02-02T13:31:49.681Z,42.91
2019-02-02T13:36:52.626Z,45.73
2019-02-02T13:41:55.288Z,53.08
2019-02-02T13:46:57.977Z,55.69
2019-02-02T13:52:00.596Z,54.72
2019-02-02T13:57:04.489Z,53.15
2019-02-02T14:02:07.168Z,51.96
2019-02-02T14:07:17.787Z,50.13
2019-02-02T14:12:14.471Z,49.92
2019-02-02T14:17:17.334Z,49.13
2019-02-02T14:22:19.943Z,51.23
2019-02-02T14:27:22.646Z,50.29
2019-02-02T14:32:25.413Z,55.24
2019-02-02T14:37:28.194Z,56.15
2019-02-02T14:42:30.926Z,58.43
2019-02-02T14:47:33.642Z,61.33
2019-02-02T14:52:36.549Z,56.66
2019-02-02T14:57:39.384Z,55.18
2019-02-02T15:02:42.094Z,57.19
2019-02-02T15:07:44.857Z,58.51
2019-02-02T15:12:47.665Z,60.07
2019-02-02T15:17:50.557Z,62.14
2019-02-02T15:22:53.321Z,60.03
2019-02-02T15:27:56.149Z,63.04
2019-02-02T15:32:59.221Z,64.33
2019-02-02T15:38:02.037Z,62.90
2019-02-02T15:43:04.877Z,63.01
2019-02-02T15:48:07.664Z,61.91
2019-02-02T15:53:10.559Z,62.21
2019-02-02T15:58:13.273Z,61.95
2019-02-02T16:03:16.008Z,62.89
2019-02-02T16:08:18.744Z,63.65
2019-02-02T16:13:21.421Z,65.29
2019-02-02T16:18:24.253Z,63.04
2019-02-02T16:23:26.858Z,62.36
2019-02-02T16:28:29.667Z,63.16
2019-02-02T16:33:33.307Z,63.41
2019-02-02T16:38:35.948Z,65.11
2019-02-02T16:43:38.639Z,65.01
2019-02-02T16:48:41.386Z,66.34
2019-02-02T16:53:44.101Z,66.47
2019-02-02T16:58:46.771Z,67.65
2019-02-02T17:03:49.427Z,68.86
2019-02-02T17:08:52.200Z,69.36
2019-02-02T17:13:54.909Z,69.14
2019-02-02T17:18:57.568Z,68.83
2019-02-02T17:24:00.135Z,69.63
2019-02-02T17:29:03.228Z,70.26
2019-02-02T17:34:06.091Z,69.94
2019-02-02T17:39:08.829Z,68.49
2019-02-02T17:44:11.529Z,68.18
2019-02-02T17:49:14.479Z,68.76
2019-02-02T17:54:17.334Z,69.28
2019-02-02T17:59:20.155Z,70.08
2019-02-02T18:04:23.104Z,69.50
2019-02-02T18:09:26.049Z,70.35
2019-02-02T18:14:28.831Z,70.57
2019-02-02T18:19:31.520Z,69.76
2019-02-02T18:24:34.225Z,68.53
2019-02-02T18:29:36.842Z,68.32
2019-02-02T18:34:49.954Z,67.75
2019-02-02T18:39:44.298Z,67.07
2019-02-02T18:44:46.961Z,66.15
2019-02-02T18:49:49.635Z,66.16
2019-02-02T18:54:52.329Z,67.38
2019-02-02T18:59:55.016Z,68.13
2019-02-02T19:05:04.053Z,68.91
2019-02-02T19:10:02.422Z,69.25
2019-02-02T19:15:06.324Z,68.40
2019-02-02T19:20:12.241Z,68.53
2019-02-02T19:25:14.834Z,68.94
2019-02-02T19:30:20.046Z,69.65
2019-02-02T19:35:23.032Z,70.74
2019-02-02T19:40:25.748Z,71.44
2019-02-02T19:45:28.953Z,71.06
2019-02-02T19:50:31.775Z,71.64
2019-02-02T19:55:34.583Z,72.00
2019-02-02T20:00:37.342Z,72.64
2019-02-02T20:05:40.029Z,73.32
2019-02-02T20:10:42.746Z,74.47
2019-02-02T20:15:45.292Z,74.89
2019-02-02T20:20:47.891Z,75.19
2019-02-02T20:25:50.563Z,75.15
2019-02-02T20:30:53.225Z,76.02
2019-02-02T20:35:56.032Z,77.01
2019-02-02T20:40:59.714Z,78.08
2019-02-02T20:46:03.690Z,78.90
2019-02-02T20:51:06.694Z,77.28
2019-02-02T20:56:09.412Z,76.66
2019-02-02T21:01:12.177Z,76.47
2019-02-02T21:06:14.857Z,77.22
2019-02-02T21:11:17.668Z,78.39
2019-02-02T21:16:20.524Z,77.24
2019-02-02T21:21:23.313Z,75.63
2019-02-02T21:26:25.926Z,76.25
2019-02-02T21:31:28.541Z,74.83
2019-02-02T21:36:31.229Z,73.88
2019-02-02T21:41:34.077Z,73.91
2019-02-02T21:46:36.806Z,73.69
2019-02-02T21:51:39.518Z,74.39
2019-02-02T21:56:42.173Z,75.00
2019-02-02T22:01:44.953Z,75.28
2019-02-02T22:06:47.580Z,77.29
2019-02-02T22:11:50.269Z,78.68
2019-02-02T22:16:53.021Z,78.52
2019-02-02T22:21:55.767Z,78.17
2019-02-02T22:26:58.397Z,77.35
2019-02-02T22:32:00.962Z,78.76
2019-02-02T22:37:04.198Z,80.99
2019-02-02T22:42:06.956Z,81.89
2019-02-02T22:47:09.625Z,81.79
2019-02-02T22:52:12.263Z,82.51
2019-02-02T22:57:14.917Z,83.36
2019-02-02T23:02:20.461Z,82.88
2019-02-02T23:07:49.269Z,82.86
2019-02-02T23:13:10.398Z,82.79
2019-02-02T23:18:13.031Z,81.53
2019-02-02T23:23:15.603Z,80.52
2019-02-02T23:28:18.477Z,80.37
2019-02-02T23:33:21.274Z,80.61
2019-02-02T23:38:24.052Z,80.86
2019-02-02T23:43:26.741Z,80.32
2019-02-02T23:48:29.648Z,80.12
2019-02-02T23:53:32.403Z,80.05
2019-02-02T23:58:35.090Z,81.49
